Time;durP1;ratioP1;P1;durP2;ratioP2;P2;SDS_P1;SDS_P2;PMS_P1;PMS_P2;Temp;Humidity;BMP_temperature;BMP_pressure;BME280_temperature;BME280_humidity;BME280_pressure;Samples;Min_cycle;Max_cycle;Signal;HPM_P1;HPM_P2
2022/03/11 00:02:16;;;;;;;51.42;24.27;;;7.20;72.40;;;;;;5078893;28;20535;-70
2022/03/11 00:04:42;;;;;;;49.97;25.02;;;7.30;72.10;;;;;;5085314;28;20036;-70
2022/03/11 00:07:08;;;;;;;46.05;24.33;;;7.40;71.80;;;;;;5084970;28;20764;-70
2022/03/11 00:09:34;;;;;;;45.25;25.00;;;7.50;71.80;;;;;;5086837;28;20085;-70
2022/03/11 00:12:00;;;;;;;45.22;22.55;;;7.40;72.00;;;;;;5083556;28;20111;-70
2022/03/11 00:14:25;;;;;;;46.75;22.52;;;7.40;71.80;;;;;;5082560;28;20118;-70
2022/03/11 00:16:51;;;;;;;50.78;24.33;;;7.30;72.00;;;;;;5086337;28;20036;-70
2022/03/11 00:19:17;;;;;;;46.35;22.48;;;7.20;72.30;;;;;;5084144;28;20081;-70
2022/03/11 00:21:42;;;;;;;49.95;25.13;;;7.20;72.40;;;;;;5081825;28;20040;-70
2022/03/11 00:24:08;;;;;;;44.30;23.73;;;7.10;72.50;;;;;;5082665;28;20031;-70
2022/03/11 00:26:34;;;;;;;46.30;24.65;;;7.00;72.70;;;;;;5085904;28;20078;-70
2022/03/11 00:29:01;;;;;;;47.75;24.23;;;6.90;73.20;;;;;;5077715;28;20119;-70
2022/03/11 00:31:28;;;;;;;52.78;25.45;;;6.90;73.20;;;;;;5085507;28;20122;-71
2022/03/11 00:33:54;;;;;;;49.13;25.55;;;7.00;73.10;;;;;;5081397;28;20043;-70
2022/03/11 00:36:20;;;;;;;44.25;23.20;;;7.00;73.20;;;;;;5083770;28;20144;-70
2022/03/11 00:38:45;;;;;;;51.10;25.95;;;6.90;73.00;;;;;;5084558;28;20041;-71
2022/03/11 00:41:11;;;;;;;42.80;22.60;;;7.20;72.60;;;;;;5083569;28;20024;-70
2022/03/11 00:43:37;;;;;;;44.00;24.25;;;7.10;72.80;;;;;;5082510;28;20619;-71
2022/03/11 00:46:03;;;;;;;52.38;26.50;;;7.00;73.00;;;;;;5075846;28;20036;-70
2022/03/11 00:48:28;;;;;;;51.20;23.45;;;6.90;72.90;;;;;;5078385;28;20111;-70
2022/03/11 00:50:54;;;;;;;50.08;24.95;;;6.80;73.40;;;;;;5069216;28;20067;-70
2022/03/11 00:53:20;;;;;;;48.92;25.95;;;6.90;73.10;;;;;;5083559;28;20031;-70
2022/03/11 00:55:46;;;;;;;50.15;26.60;;;7.00;72.70;;;;;;5081267;28;20044;-70
2022/03/11 00:58:11;;;;;;;49.92;24.65;;;7.10;72.50;;;;;;5086564;28;20032;-70
2022/03/11 01:00:37;;;;;;;47.13;24.58;;;7.00;72.60;;;;;;5081160;28;20086;-71
2022/03/11 01:03:04;;;;;;;56.22;26.30;;;6.90;72.90;;;;;;5079642;28;20562;-71
2022/03/11 01:05:30;;;;;;;47.72;24.77;;;6.90;72.90;;;;;;5084991;28;20024;-70
2022/03/11 01:07:56;;;;;;;49.25;23.98;;;6.80;72.60;;;;;;5087585;28;20035;-71
2022/03/11 01:10:23;;;;;;;45.17;21.88;;;6.80;72.60;;;;;;5086135;28;20432;-71
2022/03/11 01:12:48;;;;;;;52.97;24.20;;;6.80;72.20;;;;;;5087165;28;20024;-71
2022/03/11 01:15:14;;;;;;;42.45;21.83;;;6.70;71.90;;;;;;5087630;28;20032;-70
2022/03/11 01:17:40;;;;;;;47.40;24.35;;;6.70;72.00;;;;;;5088397;28;20065;-70
2022/03/11 01:20:06;;;;;;;39.67;21.67;;;6.70;71.40;;;;;;5085067;28;21727;-70
2022/03/11 01:22:33;;;;;;;47.08;22.83;;;6.70;71.30;;;;;;5087164;28;20028;-70
2022/03/11 01:24:59;;;;;;;46.42;22.65;;;6.70;70.80;;;;;;5086021;28;20040;-70
2022/03/11 01:27:24;;;;;;;39.22;20.90;;;6.70;70.30;;;;;;5089791;28;20028;-70
2022/03/11 01:29:50;;;;;;;42.35;20.02;;;6.70;69.80;;;;;;5087287;28;20058;-70
2022/03/11 01:32:16;;;;;;;49.83;22.80;;;6.80;68.70;;;;;;5087588;28;20347;-70
2022/03/11 01:34:42;;;;;;;42.78;22.27;;;6.80;68.70;;;;;;5088259;28;20466;-70
2022/03/11 01:37:07;;;;;;;39.05;20.65;;;6.70;69.00;;;;;;5082459;28;20622;-70
2022/03/11 01:39:33;;;;;;;38.45;21.77;;;6.60;69.20;;;;;;5089246;28;20031;-70
2022/03/11 01:41:59;;;;;;;40.42;19.95;;;6.70;68.70;;;;;;5086320;28;20028;-70
2022/03/11 01:44:26;;;;;;;41.88;22.00;;;6.50;69.10;;;;;;5084158;28;20023;-70
2022/03/11 01:46:52;;;;;;;44.08;22.50;;;6.40;69.60;;;;;;5090928;28;20145;-70
2022/03/11 01:49:18;;;;;;;42.92;21.05;;;6.40;69.50;;;;;;5086339;28;20034;-70
2022/03/11 01:51:44;;;;;;;41.13;20.58;;;6.30;69.70;;;;;;5090568;28;20062;-70
2022/03/11 01:54:11;;;;;;;45.55;21.58;;;6.30;69.50;;;;;;5089507;28;20032;-70
2022/03/11 01:56:38;;;;;;;40.90;21.02;;;6.50;68.90;;;;;;5090147;28;20058;-70
2022/03/11 01:59:04;;;;;;;40.15;20.90;;;6.60;68.50;;;;;;5086527;28;20032;-70
2022/03/11 02:01:30;;;;;;;41.40;20.77;;;6.60;68.70;;;;;;5087991;28;20028;-70
2022/03/11 02:03:59;;;;;;;42.25;22.60;;;6.60;68.80;;;;;;5088899;28;20024;-70
2022/03/11 02:06:26;;;;;;;42.67;22.38;;;6.50;69.20;;;;;;5087994;28;20035;-70
2022/03/11 02:08:54;;;;;;;48.10;22.25;;;6.30;69.60;;;;;;5086461;28;20053;-70
2022/03/11 02:11:20;;;;;;;47.28;21.85;;;6.30;69.90;;;;;;5081556;28;20055;-70
2022/03/11 02:13:54;;;;;;;43.78;24.13;;;6.10;70.40;;;;;;5088340;28;20039;-70
2022/03/11 02:16:29;;;;;;;45.15;23.33;;;6.10;70.90;;;;;;5089664;28;20043;-70
2022/03/11 02:18:55;;;;;;;40.20;20.60;;;6.00;71.30;;;;;;5087424;28;20024;-70
2022/03/11 02:21:23;;;;;;;40.03;21.80;;;5.90;71.90;;;;;;5083402;28;20036;-70
2022/03/11 02:23:54;;;;;;;41.38;22.10;;;5.80;72.10;;;;;;5085898;28;20131;-70
2022/03/11 02:26:22;;;;;;;37.28;20.55;;;5.80;72.50;;;;;;5087239;28;20040;-70
2022/03/11 02:28:50;;;;;;;41.25;22.23;;;5.80;72.60;;;;;;5081510;28;20517;-70
2022/03/11 02:31:18;;;;;;;44.97;21.58;;;5.90;72.80;;;;;;5085832;28;20453;-70
2022/03/11 02:33:44;;;;;;;39.13;21.73;;;5.90;72.90;;;;;;5087594;28;20090;-70
2022/03/11 02:36:10;;;;;;;42.55;22.00;;;5.90;73.00;;;;;;5086600;28;20020;-70
2022/03/11 02:38:37;;;;;;;41.25;22.08;;;5.80;73.10;;;;;;5083466;28;20036;-70
2022/03/11 02:41:03;;;;;;;39.35;21.63;;;5.80;73.50;;;;;;5085714;28;20040;-70
2022/03/11 02:43:28;;;;;;;47.83;22.55;;;5.80;74.00;;;;;;5087105;28;20039;-70
2022/03/11 02:45:54;;;;;;;39.53;21.45;;;5.90;73.90;;;;;;5087063;28;20036;-70
2022/03/11 02:48:20;;;;;;;41.40;22.38;;;5.80;74.40;;;;;;5089048;28;20031;-70
2022/03/11 02:50:45;;;;;;;41.08;22.90;;;5.90;74.60;;;;;;5086004;28;20061;-70
2022/03/11 02:53:11;;;;;;;44.63;21.88;;;5.90;74.10;;;;;;5085983;28;20480;-70
2022/03/11 02:55:37;;;;;;;42.33;20.70;;;5.80;74.60;;;;;;5090275;28;20028;-70
2022/03/11 02:58:03;;;;;;;39.60;22.52;;;5.80;75.10;;;;;;5091713;28;20024;-70
2022/03/11 03:00:29;;;;;;;37.33;22.35;;;5.80;75.50;;;;;;5085439;28;20052;-70
2022/03/11 03:02:55;;;;;;;43.75;22.30;;;5.70;75.40;;;;;;5078145;28;20024;-70
2022/03/11 03:05:20;;;;;;;40.25;22.02;;;5.60;75.90;;;;;;5079591;28;20494;-70
2022/03/11 03:07:46;;;;;;;43.90;22.92;;;5.50;76.30;;;;;;5091464;28;20039;-70
2022/03/11 03:10:12;;;;;;;41.15;23.35;;;5.50;76.40;;;;;;5090386;28;20075;-70
2022/03/11 03:12:39;;;;;;;41.67;22.13;;;5.40;77.20;;;;;;5087137;28;20425;-70
2022/03/11 03:15:06;;;;;;;39.78;20.23;;;5.40;77.60;;;;;;5091885;28;20081;-70
2022/03/11 03:17:32;;;;;;;40.78;22.40;;;5.40;77.70;;;;;;5089469;28;20044;-70
2022/03/11 03:19:57;;;;;;;41.13;21.98;;;5.40;77.90;;;;;;5091138;28;20077;-70
2022/03/11 03:22:23;;;;;;;44.22;23.08;;;5.50;78.10;;;;;;5090991;28;20093;-70
2022/03/11 03:24:49;;;;;;;46.08;22.65;;;5.50;78.30;;;;;;5089404;28;20137;-70
2022/03/11 03:27:15;;;;;;;43.22;23.58;;;5.50;78.50;;;;;;5091957;28;20040;-70
2022/03/11 03:29:40;;;;;;;40.30;21.75;;;5.50;79.00;;;;;;5090119;28;20028;-70
2022/03/11 03:32:06;;;;;;;42.13;22.52;;;5.40;79.20;;;;;;5090805;28;20032;-70
2022/03/11 03:34:35;;;;;;;42.58;23.17;;;5.30;79.20;;;;;;5090032;28;20115;-70
2022/03/11 03:37:07;;;;;;;43.50;22.90;;;5.30;79.70;;;;;;5085548;28;20432;-70
2022/03/11 03:39:33;;;;;;;43.05;22.58;;;5.20;79.70;;;;;;5088485;28;20125;-70
2022/03/11 03:41:59;;;;;;;45.13;23.75;;;5.10;79.90;;;;;;5090956;28;20028;-70
2022/03/11 03:44:24;;;;;;;45.55;25.63;;;5.10;80.20;;;;;;5086049;28;20134;-70
2022/03/11 03:46:50;;;;;;;40.47;21.50;;;5.20;80.30;;;;;;5089883;28;20534;-70
2022/03/11 03:49:16;;;;;;;40.38;22.02;;;5.10;80.40;;;;;;5090587;28;20036;-70
2022/03/11 03:51:42;;;;;;;41.63;21.95;;;5.20;80.70;;;;;;5088198;28;20029;-70
2022/03/11 03:54:11;;;;;;;38.22;22.10;;;5.20;80.70;;;;;;5085722;28;20055;-70
2022/03/11 03:56:42;;;;;;;47.63;23.73;;;5.20;80.70;;;;;;5089292;28;20397;-70
2022/03/11 03:59:09;;;;;;;42.63;22.85;;;5.20;80.80;;;;;;5091533;28;20118;-70
2022/03/11 04:01:36;;;;;;;41.38;22.85;;;5.30;81.00;;;;;;5087585;28;20032;-71
2022/03/11 04:04:03;;;;;;;40.55;21.80;;;5.20;80.70;;;;;;5081352;28;20028;-72
2022/03/11 04:06:30;;;;;;;46.10;23.77;;;5.20;81.10;;;;;;5080887;28;20095;-72
2022/03/11 04:08:56;;;;;;;42.58;24.23;;;5.20;81.30;;;;;;5077512;28;20402;-72
2022/03/11 04:11:26;;;;;;;39.72;22.02;;;5.20;81.10;;;;;;5081893;28;20020;-72
2022/03/11 04:13:54;;;;;;;47.53;24.27;;;5.10;81.30;;;;;;5081343;28;20093;-72
2022/03/11 04:16:20;;;;;;;39.30;22.63;;;5.00;81.60;;;;;;5082321;28;22131;-72
2022/03/11 04:18:47;;;;;;;40.90;22.90;;;5.10;81.60;;;;;;5083301;28;20096;-72
2022/03/11 04:21:13;;;;;;;39.67;22.08;;;4.90;81.80;;;;;;5085449;28;20533;-72
2022/03/11 04:23:40;;;;;;;43.65;22.65;;;4.90;81.80;;;;;;5086496;28;20024;-72
2022/03/11 04:26:06;;;;;;;40.15;21.58;;;4.80;81.80;;;;;;5082334;28;20534;-72
2022/03/11 04:28:32;;;;;;;43.55;22.67;;;4.80;81.60;;;;;;5085107;28;20028;-72
2022/03/11 04:30:58;;;;;;;36.50;21.90;;;4.80;81.60;;;;;;5085851;28;20144;-72
2022/03/11 04:33:25;;;;;;;43.63;22.67;;;4.80;81.70;;;;;;5086494;28;20081;-72
2022/03/11 04:35:50;;;;;;;39.63;22.13;;;4.80;82.10;;;;;;5080610;28;20024;-71
2022/03/11 04:38:16;;;;;;;42.17;23.33;;;4.90;82.50;;;;;;5091487;28;20024;-71
2022/03/11 04:40:42;;;;;;;43.33;24.05;;;4.80;82.60;;;;;;5083792;28;20043;-71
2022/03/11 04:43:08;;;;;;;41.75;23.08;;;4.80;82.50;;;;;;5088146;28;20036;-71
2022/03/11 04:45:34;;;;;;;43.65;22.60;;;4.70;82.60;;;;;;5082866;28;20044;-71
2022/03/11 04:47:59;;;;;;;42.60;22.23;;;4.70;82.30;;;;;;5086583;28;20280;-71
2022/03/11 04:50:25;;;;;;;42.30;23.92;;;4.60;82.30;;;;;;5091701;28;20075;-71
2022/03/11 04:52:52;;;;;;;39.55;21.88;;;4.70;82.70;;;;;;5085207;28;20358;-71
2022/03/11 04:55:17;;;;;;;38.45;22.20;;;4.60;82.80;;;;;;5085469;28;20531;-71
2022/03/11 04:57:44;;;;;;;42.55;24.50;;;4.60;83.20;;;;;;5081817;28;20024;-71
2022/03/11 05:00:11;;;;;;;41.78;23.10;;;4.50;83.70;;;;;;5075091;28;20406;-71
2022/03/11 05:02:38;;;;;;;44.50;23.77;;;4.50;83.70;;;;;;5078679;28;20076;-71
2022/03/11 05:05:08;;;;;;;40.13;22.15;;;4.50;83.70;;;;;;5083717;28;20043;-71
2022/03/11 05:07:34;;;;;;;41.85;22.52;;;4.60;83.20;;;;;;5075540;28;20390;-72
2022/03/11 05:10:01;;;;;;;42.75;23.50;;;4.70;83.80;;;;;;5077441;28;20028;-72
2022/03/11 05:12:27;;;;;;;43.53;21.90;;;4.50;84.50;;;;;;5081796;28;20023;-71
2022/03/11 05:14:53;;;;;;;44.80;22.05;;;4.40;84.80;;;;;;5080566;28;20024;-71
2022/03/11 05:17:19;;;;;;;45.10;23.15;;;4.40;84.80;;;;;;5073581;28;20036;-71
2022/03/11 05:19:45;;;;;;;39.95;22.17;;;4.30;85.10;;;;;;5081772;28;20035;-71
2022/03/11 05:22:11;;;;;;;44.63;22.10;;;4.20;85.20;;;;;;5081623;28;20039;-71
2022/03/11 05:24:38;;;;;;;41.13;22.63;;;4.10;85.50;;;;;;5081318;28;20035;-71
2022/03/11 05:27:04;;;;;;;48.65;22.23;;;4.00;85.70;;;;;;5078569;28;20040;-72
2022/03/11 05:29:34;;;;;;;45.50;23.75;;;4.00;86.00;;;;;;5080333;28;20035;-71
2022/03/11 05:32:00;;;;;;;43.05;21.02;;;4.00;86.30;;;;;;5080469;28;20043;-71
2022/03/11 05:34:26;;;;;;;40.78;22.48;;;3.90;86.70;;;;;;5077665;28;20073;-71
2022/03/11 05:36:52;;;;;;;41.00;22.23;;;3.90;87.00;;;;;;5062312;28;20024;-71
2022/03/11 05:39:18;;;;;;;41.40;23.10;;;3.90;87.10;;;;;;5074120;28;20020;-71
2022/03/11 05:41:46;;;;;;;43.22;22.58;;;3.90;87.40;;;;;;5079571;28;20044;-72
2022/03/11 05:44:12;;;;;;;37.35;20.98;;;3.90;87.50;;;;;;5081486;28;20036;-71
2022/03/11 05:46:38;;;;;;;46.45;23.52;;;3.80;87.10;;;;;;5081769;28;20071;-71
2022/03/11 05:49:03;;;;;;;47.13;23.75;;;3.80;86.90;;;;;;5080809;28;20055;-71
2022/03/11 05:51:29;;;;;;;43.58;22.75;;;3.80;86.90;;;;;;5080316;28;20032;-71
2022/03/11 05:53:55;;;;;;;41.65;23.27;;;3.80;87.20;;;;;;5081875;28;20024;-71
2022/03/11 05:56:20;;;;;;;43.20;22.75;;;3.70;87.30;;;;;;5079436;28;20036;-71
2022/03/11 05:58:46;;;;;;;47.15;23.08;;;3.60;87.50;;;;;;5079544;28;20032;-71
2022/03/11 06:01:12;;;;;;;41.35;21.58;;;3.70;87.00;;;;;;5075726;28;20051;-71
2022/03/11 06:03:38;;;;;;;43.88;21.92;;;3.60;87.40;;;;;;5079227;28;20043;-71
2022/03/11 06:06:03;;;;;;;45.00;22.23;;;3.60;88.20;;;;;;5080924;28;20684;-71
2022/03/11 06:08:29;;;;;;;39.50;22.00;;;3.70;88.30;;;;;;5076684;28;20642;-71
2022/03/11 06:10:55;;;;;;;37.78;20.98;;;3.80;88.20;;;;;;5081374;28;20169;-71
2022/03/11 06:13:20;;;;;;;42.15;23.58;;;4.00;88.00;;;;;;5064117;28;20359;-72
2022/03/11 06:15:46;;;;;;;44.45;22.25;;;3.90;88.50;;;;;;5065253;28;20031;-71
2022/03/11 06:18:15;;;;;;;40.90;21.77;;;3.90;87.80;;;;;;5082120;28;20068;-71
2022/03/11 06:20:41;;;;;;;41.55;23.27;;;4.00;87.50;;;;;;5080910;28;20431;-71
2022/03/11 06:23:07;;;;;;;42.03;24.08;;;4.00;87.10;;;;;;5075177;28;20035;-72
2022/03/11 06:25:33;;;;;;;44.20;24.27;;;4.10;86.90;;;;;;5079055;28;20084;-71
2022/03/11 06:27:58;;;;;;;43.17;24.92;;;4.10;87.00;;;;;;5081101;28;20054;-71
2022/03/11 06:30:24;;;;;;;46.97;24.15;;;4.00;87.50;;;;;;5083503;28;20035;-75
2022/03/11 06:32:51;;;;;;;43.58;22.92;;;4.00;87.10;;;;;;5088204;28;20036;-75
2022/03/11 06:35:17;;;;;;;44.17;24.90;;;4.00;86.20;;;;;;5084177;28;20063;-73
2022/03/11 06:37:44;;;;;;;48.30;23.90;;;4.10;85.60;;;;;;5069727;28;20109;-73
2022/03/11 06:40:11;;;;;;;53.10;25.13;;;4.10;84.80;;;;;;5066211;28;20389;-76
2022/03/11 06:42:42;;;;;;;50.90;23.73;;;4.30;86.20;;;;;;5080827;28;20043;-76
2022/03/11 06:45:09;;;;;;;45.40;24.50;;;4.10;85.80;;;;;;5088831;28;20040;-75
2022/03/11 06:47:35;;;;;;;45.53;24.48;;;4.10;86.30;;;;;;5085891;28;20160;-75
2022/03/11 06:50:01;;;;;;;43.38;24.00;;;4.20;85.20;;;;;;5086534;28;20057;-75
2022/03/11 06:52:27;;;;;;;45.47;24.52;;;4.10;85.90;;;;;;5082697;28;20460;-74
2022/03/11 06:54:53;;;;;;;44.00;23.25;;;4.30;84.90;;;;;;5085457;28;20126;-75
2022/03/11 06:57:18;;;;;;;44.63;24.52;;;4.30;84.50;;;;;;5083257;28;20055;-75
2022/03/11 06:59:44;;;;;;;44.22;24.02;;;4.40;84.50;;;;;;5080056;28;20076;-75
2022/03/11 07:02:10;;;;;;;48.67;25.90;;;4.40;85.70;;;;;;5083088;28;20032;-74
2022/03/11 07:04:36;;;;;;;44.83;24.35;;;4.20;85.70;;;;;;5083893;28;20493;-75
2022/03/11 07:07:02;;;;;;;48.22;23.67;;;4.20;84.70;;;;;;5084450;28;20063;-75
2022/03/11 07:09:28;;;;;;;45.83;23.52;;;4.10;83.50;;;;;;5084193;28;20117;-75
2022/03/11 07:11:57;;;;;;;47.67;25.25;;;4.30;83.90;;;;;;5083339;28;20105;-75
2022/03/11 07:14:29;;;;;;;45.67;24.35;;;4.50;84.10;;;;;;5083608;28;20027;-76
2022/03/11 07:16:57;;;;;;;46.88;23.10;;;4.50;83.70;;;;;;5080358;28;20024;-76
2022/03/11 07:19:29;;;;;;;44.58;24.08;;;4.60;82.80;;;;;;5085748;28;20028;-75
2022/03/11 07:21:57;;;;;;;48.60;24.55;;;4.70;83.50;;;;;;5084795;28;20028;-76
2022/03/11 07:24:23;;;;;;;50.83;25.75;;;4.70;83.60;;;;;;5084324;28;20610;-76
2022/03/11 07:26:49;;;;;;;47.78;24.83;;;4.80;82.40;;;;;;5082705;28;20033;-77
2022/03/11 07:29:14;;;;;;;46.92;26.02;;;4.90;82.50;;;;;;5085028;28;20542;-76
2022/03/11 07:31:40;;;;;;;47.72;24.92;;;5.10;82.50;;;;;;5084328;28;20059;-76
2022/03/11 07:34:06;;;;;;;43.97;25.60;;;5.10;81.90;;;;;;5080524;28;20031;-76
2022/03/11 07:36:34;;;;;;;50.38;25.35;;;5.20;82.50;;;;;;5082096;28;20062;-75
2022/03/11 07:39:09;;;;;;;46.50;24.45;;;5.20;82.10;;;;;;5080697;28;20112;-76
2022/03/11 07:41:35;;;;;;;43.83;23.42;;;5.10;82.00;;;;;;5084692;28;20032;-76
2022/03/11 07:44:01;;;;;;;40.08;21.70;;;5.10;82.50;;;;;;5084740;28;20692;-76
2022/03/11 07:46:28;;;;;;;43.45;24.42;;;5.10;82.20;;;;;;5083788;28;20362;-76
2022/03/11 07:48:54;;;;;;;45.00;24.15;;;5.10;83.00;;;;;;5083553;28;20028;-76
2022/03/11 07:51:21;;;;;;;46.45;24.48;;;5.20;83.30;;;;;;5065309;28;20024;-76
2022/03/11 07:53:46;;;;;;;57.05;30.20;;;5.20;82.80;;;;;;5067878;28;20124;-76
2022/03/11 07:56:13;;;;;;;57.35;31.25;;;5.10;86.20;;;;;;5065836;28;20033;-76
2022/03/11 07:58:39;;;;;;;56.38;31.05;;;5.00;87.00;;;;;;5070184;28;20028;-76
2022/03/11 08:01:09;;;;;;;55.20;28.58;;;5.00;87.00;;;;;;5079203;28;20050;-77
2022/03/11 08:03:39;;;;;;;55.00;28.23;;;4.90;85.70;;;;;;5078576;28;20650;-76
2022/03/11 08:06:08;;;;;;;51.50;26.27;;;5.10;85.10;;;;;;5078627;28;20045;-76
2022/03/11 08:08:38;;;;;;;48.63;26.95;;;5.10;83.90;;;;;;5078104;28;20505;-76
2022/03/11 08:11:10;;;;;;;52.42;27.17;;;5.30;84.40;;;;;;5078974;28;20467;-76
2022/03/11 08:13:41;;;;;;;48.58;25.52;;;5.50;83.00;;;;;;5083923;28;20020;-77
2022/03/11 08:16:07;;;;;;;48.88;25.92;;;5.40;82.50;;;;;;5084640;28;20585;-77
2022/03/11 08:18:36;;;;;;;46.72;26.05;;;5.50;82.50;;;;;;5082260;28;20039;-77
2022/03/11 08:21:24;;;;;;;48.17;25.08;;;5.40;82.00;;;;;;5083965;28;20099;-77
2022/03/11 08:23:50;;;;;;;53.25;25.23;;;5.40;82.20;;;;;;5079709;28;20129;-77
2022/03/11 08:26:29;;;;;;;48.63;25.63;;;5.40;82.50;;;;;;5082695;28;20101;-76
2022/03/11 08:28:55;;;;;;;47.88;25.95;;;5.60;82.00;;;;;;5077829;28;20108;-76
2022/03/11 08:31:24;;;;;;;52.13;25.33;;;5.60;82.30;;;;;;5062172;28;20076;-77
2022/03/11 08:33:49;;;;;;;49.40;26.05;;;5.80;82.20;;;;;;5075065;28;20039;-77
2022/03/11 08:36:15;;;;;;;45.63;25.05;;;5.90;82.30;;;;;;5066231;28;20024;-77
2022/03/11 08:38:41;;;;;;;44.80;26.50;;;6.00;82.60;;;;;;5074636;28;20024;-77
2022/03/11 08:41:08;;;;;;;50.63;26.35;;;6.00;80.90;;;;;;5068274;28;20414;-77
2022/03/11 08:43:38;;;;;;;51.28;26.55;;;5.90;80.40;;;;;;5077129;28;20519;-77
2022/03/11 08:46:07;;;;;;;55.00;26.83;;;6.00;80.20;;;;;;5083146;28;20043;-77
2022/03/11 08:48:33;;;;;;;46.25;25.80;;;6.20;80.50;;;;;;5082532;28;20131;-77
2022/03/11 08:50:59;;;;;;;52.47;26.85;;;6.40;79.40;;;;;;5081360;28;20036;-77
2022/03/11 08:53:24;;;;;;;49.75;26.02;;;6.50;79.80;;;;;;5082655;28;20039;-77
2022/03/11 08:55:50;;;;;;;49.10;26.77;;;6.50;80.70;;;;;;5082389;28;20068;-77
2022/03/11 08:58:16;;;;;;;48.15;26.00;;;6.60;80.60;;;;;;5080836;28;20126;-78
2022/03/11 09:00:42;;;;;;;49.22;27.77;;;6.40;80.40;;;;;;5072796;28;20048;-77
2022/03/11 09:03:07;;;;;;;50.88;27.10;;;6.50;80.90;;;;;;5081572;28;20833;-76
2022/03/11 09:05:33;;;;;;;55.28;27.20;;;6.50;80.90;;;;;;5083033;28;20036;-77
2022/03/11 09:07:59;;;;;;;50.72;26.90;;;6.60;81.10;;;;;;5082369;28;20036;-76
2022/03/11 09:10:25;;;;;;;52.00;26.77;;;6.60;80.90;;;;;;5082718;28;20382;-76
2022/03/11 09:12:51;;;;;;;55.05;28.42;;;6.70;81.20;;;;;;5082166;28;20031;-76
2022/03/11 09:15:16;;;;;;;49.55;26.60;;;6.70;81.50;;;;;;5081382;28;20579;-76
2022/03/11 09:17:45;;;;;;;56.50;27.02;;;6.70;80.90;;;;;;5082509;28;20034;-77
2022/03/11 09:20:12;;;;;;;49.58;27.38;;;6.80;81.20;;;;;;5083291;28;20035;-75
2022/03/11 09:22:39;;;;;;;50.20;27.67;;;6.80;81.10;;;;;;5082230;28;20036;-77
2022/03/11 09:25:07;;;;;;;47.90;27.33;;;6.80;80.20;;;;;;5082924;28;20040;-76
2022/03/11 09:27:34;;;;;;;51.85;27.40;;;6.70;79.90;;;;;;5080149;28;20043;-75
2022/03/11 09:29:59;;;;;;;54.22;27.67;;;6.80;81.00;;;;;;5070048;28;20028;-75
2022/03/11 09:32:25;;;;;;;54.50;27.85;;;6.80;80.90;;;;;;5072555;28;20024;-76
2022/03/11 09:34:52;;;;;;;50.55;27.90;;;7.00;80.50;;;;;;5081525;28;20024;-76
2022/03/11 09:37:18;;;;;;;47.45;26.10;;;7.10;80.50;;;;;;5083302;28;21045;-76
2022/03/11 09:39:43;;;;;;;52.58;27.52;;;6.90;80.00;;;;;;5082839;28;20035;-75
2022/03/11 09:42:10;;;;;;;47.40;27.30;;;7.20;80.20;;;;;;5079825;28;20031;-77
2022/03/11 09:44:39;;;;;;;53.38;26.35;;;7.30;80.00;;;;;;5074387;28;20449;-75
2022/03/11 09:47:05;;;;;;;48.15;26.33;;;7.40;80.00;;;;;;5063089;28;20047;-75
2022/03/11 09:49:35;;;;;;;52.35;29.20;;;7.50;79.20;;;;;;5066099;28;20027;-76
2022/03/11 09:52:02;;;;;;;52.90;27.23;;;7.50;78.80;;;;;;5078635;28;20028;-75
2022/03/11 09:54:28;;;;;;;48.80;26.35;;;7.40;79.90;;;;;;5081719;28;20069;-77
2022/03/11 09:56:53;;;;;;;51.78;28.67;;;7.50;80.40;;;;;;5083354;28;20048;-75
2022/03/11 09:59:19;;;;;;;56.15;27.33;;;7.70;80.00;;;;;;5081411;28;20070;-75
2022/03/11 10:01:45;;;;;;;48.42;26.35;;;7.70;78.80;;;;;;5081992;28;20032;-76
2022/03/11 10:04:11;;;;;;;50.53;28.15;;;7.70;79.10;;;;;;5080492;28;20583;-75
2022/03/11 10:06:38;;;;;;;49.17;28.08;;;7.80;79.00;;;;;;5079199;28;20538;-76
2022/03/11 10:09:04;;;;;;;49.83;26.67;;;7.80;79.40;;;;;;5082209;28;20036;-75
2022/03/11 10:11:30;;;;;;;46.20;26.95;;;8.00;79.90;;;;;;5077606;28;20039;-75
2022/03/11 10:14:06;;;;;;;48.25;25.55;;;8.10;79.40;;;;;;5080717;28;20104;-75
2022/03/11 10:16:33;;;;;;;47.70;26.08;;;8.10;79.60;;;;;;5082913;28;20055;-75
2022/03/11 10:19:08;;;;;;;53.25;27.15;;;8.30;79.40;;;;;;5079840;28;20046;-76
2022/03/11 10:21:35;;;;;;;46.38;24.98;;;8.10;78.80;;;;;;5080655;28;20074;-75
2022/03/11 10:24:03;;;;;;;44.35;24.92;;;8.10;79.00;;;;;;5077222;28;20028;-75
2022/03/11 10:26:32;;;;;;;48.22;26.45;;;8.20;79.30;;;;;;5078982;28;20075;-76
2022/03/11 10:29:00;;;;;;;50.30;27.80;;;8.40;79.20;;;;;;5075804;28;20035;-75
2022/03/11 10:31:33;;;;;;;44.03;23.73;;;8.50;78.80;;;;;;5079512;28;20032;-75
2022/03/11 10:34:20;;;;;;;48.75;25.58;;;8.50;78.40;;;;;;5078645;28;20524;-76
2022/03/11 10:36:48;;;;;;;43.05;23.45;;;8.60;78.90;;;;;;5080328;28;20024;-76
2022/03/11 10:39:22;;;;;;;44.28;23.67;;;8.60;78.60;;;;;;5079898;28;20032;-76
2022/03/11 10:41:50;;;;;;;;;;;8.60;77.90;;;;;;5077578;28;20035;-75
2022/03/11 10:44:28;;;;;;;42.00;24.52;;;8.70;78.80;;;;;;5080077;28;19923;-75
2022/03/11 10:46:55;;;;;;;41.92;24.67;;;8.60;78.30;;;;;;5079770;28;20093;-75
2022/03/11 10:49:31;;;;;;;42.45;22.67;;;8.80;78.50;;;;;;5081362;28;20208;-76
2022/03/11 10:51:58;;;;;;;42.13;24.88;;;8.70;78.50;;;;;;5079988;28;20049;-75
2022/03/11 10:54:26;;;;;;;39.38;23.67;;;8.80;78.60;;;;;;5080821;28;20739;-75
2022/03/11 10:56:53;;;;;;;43.72;24.50;;;9.00;78.80;;;;;;5065875;28;20118;-76
2022/03/11 10:59:21;;;;;;;40.13;23.55;;;9.10;78.00;;;;;;5063391;28;20060;-75
2022/03/11 11:01:47;;;;;;;43.70;24.50;;;8.90;77.60;;;;;;5068697;28;20089;-75
2022/03/11 11:04:17;;;;;;;40.40;24.92;;;8.60;78.40;;;;;;5081381;28;20032;-75
2022/03/11 11:06:44;;;;;;;42.60;24.65;;;8.90;78.70;;;;;;5074184;28;20036;-75
2022/03/11 11:09:11;;;;;;;40.55;22.17;;;9.00;78.40;;;;;;5061865;28;20695;-75
2022/03/11 11:11:37;;;;;;;39.13;24.42;;;9.10;77.70;;;;;;5070529;28;20576;-75
2022/03/11 11:14:05;;;;;;;35.17;22.20;;;9.20;77.70;;;;;;5076137;28;20093;-76
2022/03/11 11:16:59;;;;;;;75.18;27.17;;;9.30;77.40;;;;;;5084750;28;20049;-76
2022/03/11 11:19:26;;;;;;;39.50;22.45;;;9.40;77.90;;;;;;5078048;28;20044;-76
2022/03/11 11:21:52;;;;;;;42.63;21.75;;;9.50;77.70;;;;;;5085717;28;20032;-75
2022/03/11 11:24:23;;;;;;;36.40;20.90;;;9.40;76.90;;;;;;5084677;28;20065;-77
2022/03/11 11:26:52;;;;;;;35.25;20.73;;;9.30;77.50;;;;;;5083526;28;20465;-74
2022/03/11 11:29:30;;;;;;;36.75;21.33;;;9.20;77.40;;;;;;5082519;28;20030;-73
2022/03/11 11:31:57;;;;;;;36.30;22.52;;;9.10;77.70;;;;;;5085098;28;20042;-73
2022/03/11 11:34:25;;;;;;;39.85;20.80;;;9.10;78.30;;;;;;5082947;28;20027;-73
2022/03/11 11:36:50;;;;;;;35.55;20.63;;;8.90;77.90;;;;;;5084719;28;20027;-73
2022/03/11 11:39:16;;;;;;;35.22;22.42;;;9.00;77.40;;;;;;5083452;28;20036;-73
2022/03/11 11:41:52;;;;;;;37.20;20.40;;;9.00;77.90;;;;;;5082881;28;20048;-73
2022/03/11 11:44:17;;;;;;;35.63;20.45;;;9.10;77.90;;;;;;5082366;28;20024;-73
2022/03/11 11:47:16;;;;;;;31.10;20.40;;;9.20;77.40;;;;;;5082793;28;20484;-73
2022/03/11 11:49:50;;;;;;;34.90;20.38;;;9.20;77.40;;;;;;5079838;28;20058;-74
2022/03/11 11:52:37;;;;;;;40.97;21.77;;;9.20;77.50;;;;;;5082988;28;20024;-73
2022/03/11 11:55:13;;;;;;;36.78;20.48;;;9.50;77.70;;;;;;5080629;28;20103;-74
2022/03/11 11:57:41;;;;;;;33.30;20.63;;;9.50;77.10;;;;;;5083248;28;20039;-73
2022/03/11 12:00:38;;;;;;;39.50;20.85;;;9.60;76.80;;;;;;5081630;28;20442;-73
2022/03/11 12:03:05;;;;;;;32.85;20.90;;;9.50;76.60;;;;;;5083761;28;20957;-73
2022/03/11 12:05:46;;;;;;;34.38;20.90;;;9.50;77.30;;;;;;5072864;28;20075;-73
2022/03/11 12:08:34;;;;;;;38.70;22.05;;;9.60;76.80;;;;;;5071708;28;20031;-73
2022/03/11 12:11:00;;;;;;;36.03;20.42;;;9.90;77.20;;;;;;5066613;28;20067;-74
2022/03/11 12:13:37;;;;;;;32.85;20.15;;;9.80;76.30;;;;;;5080676;28;20110;-73
2022/03/11 12:16:04;;;;;;;39.78;21.15;;;9.70;75.80;;;;;;5081394;28;20038;-73
2022/03/11 12:18:41;;;;;;;33.50;21.42;;;9.80;75.60;;;;;;5080986;28;20634;-73
2022/03/11 12:21:08;;;;;;;39.10;21.30;;;9.90;74.80;;;;;;5082503;28;20055;-73
2022/03/11 12:23:36;;;;;;;33.47;21.15;;;9.80;74.80;;;;;;5076933;28;20032;-73
2022/03/11 12:26:10;;;;;;;36.30;21.35;;;10.00;75.20;;;;;;5081971;28;20063;-73
2022/03/11 12:28:39;;;;;;;36.30;22.83;;;10.20;74.30;;;;;;5082573;28;20031;-73
2022/03/11 12:31:11;;;;;;;36.58;20.38;;;10.30;74.40;;;;;;5083817;28;20056;-73
2022/03/11 12:33:48;;;;;;;38.40;22.50;;;10.20;74.30;;;;;;5082426;28;20032;-73
2022/03/11 12:36:17;;;;;;;37.30;19.88;;;10.00;73.50;;;;;;5083327;28;20039;-73
2022/03/11 12:38:44;;;;;;;36.30;23.17;;;10.10;73.80;;;;;;5079050;28;20116;-74
2022/03/11 12:41:12;;;;;;;37.72;22.75;;;10.20;73.60;;;;;;5082394;28;20031;-73